sensor_id;sensor_type;location;lat;lon;timestamp;temperature;humidity
14095;DHT22;18096;48.142;16.290;2022-10-30T00:00:37;12.10;99.90
14095;DHT22;18096;48.142;16.290;2022-10-30T00:03:03;12.10;99.90
14095;DHT22;18096;48.142;16.290;2022-10-30T00:05:28;12.10;99.90
14095;DHT22;18096;48.142;16.290;2022-10-30T00:07:55;12.10;99.90
14095;DHT22;18096;48.142;16.290;2022-10-30T00:10:21;12.10;99.90
14095;DHT22;18096;48.142;16.290;2022-10-30T00:12:47;12.10;99.90
14095;DHT22;18096;48.142;16.290;2022-10-30T00:15:12;12.10;99.90
14095;DHT22;18096;48.142;16.290;2022-10-30T00:17:39;12.10;99.90
14095;DHT22;18096;48.142;16.290;2022-10-30T00:20:05;12.10;99.90
14095;DHT22;18096;48.142;16.290;2022-10-30T00:22:33;12.10;99.90
14095;DHT22;18096;48.142;16.290;2022-10-30T00:24:59;12.10;99.90
14095;DHT22;18096;48.142;16.290;2022-10-30T00:27:25;12.10;99.90
14095;DHT22;18096;48.142;16.290;2022-10-30T00:29:51;12.10;99.90
14095;DHT22;18096;48.142;16.290;2022-10-30T00:32:17;12.10;99.90
14095;DHT22;18096;48.142;16.290;2022-10-30T00:34:42;12.10;99.90
14095;DHT22;18096;48.142;16.290;2022-10-30T00:37:08;12.10;99.90
14095;DHT22;18096;48.142;16.290;2022-10-30T00:39:34;12.00;99.90
14095;DHT22;18096;48.142;16.290;2022-10-30T00:41:59;12.00;99.90
14095;DHT22;18096;48.142;16.290;2022-10-30T00:44:32;12.00;99.90
14095;DHT22;18096;48.142;16.290;2022-10-30T00:47:02;12.00;99.90
14095;DHT22;18096;48.142;16.290;2022-10-30T00:49:34;12.00;99.90
14095;DHT22;18096;48.142;16.290;2022-10-30T00:52:03;12.00;99.90
14095;DHT22;18096;48.142;16.290;2022-10-30T00:54:30;11.90;99.90
14095;DHT22;18096;48.142;16.290;2022-10-30T00:56:56;12.00;99.90
14095;DHT22;18096;48.142;16.290;2022-10-30T00:59:30;12.00;99.90
14095;DHT22;18096;48.142;16.290;2022-10-30T01:01:57;12.00;99.90
14095;DHT22;18096;48.142;16.290;2022-10-30T01:04:25;12.00;99.90
14095;DHT22;18096;48.142;16.290;2022-10-30T01:06:52;12.00;99.90
14095;DHT22;18096;48.142;16.290;2022-10-30T01:09:20;12.00;99.90
14095;DHT22;18096;48.142;16.290;2022-10-30T01:11:47;12.00;99.90
14095;DHT22;18096;48.142;16.290;2022-10-30T01:14:16;12.00;99.90
14095;DHT22;18096;48.142;16.290;2022-10-30T01:22:06;12.00;99.90
14095;DHT22;18096;48.142;16.290;2022-10-30T01:25:04;12.00;99.90
14095;DHT22;18096;48.142;16.290;2022-10-30T01:41:01;12.00;99.90
14095;DHT22;18096;48.142;16.290;2022-10-30T01:43:27;11.90;99.90
14095;DHT22;18096;48.142;16.290;2022-10-30T01:46:09;11.90;99.90
14095;DHT22;18096;48.142;16.290;2022-10-30T01:56:38;11.90;99.90
14095;DHT22;18096;48.142;16.290;2022-10-30T01:59:34;11.90;99.90
14095;DHT22;18096;48.142;16.290;2022-10-30T02:02:01;11.90;99.90
14095;DHT22;18096;48.142;16.290;2022-10-30T02:04:27;11.90;99.90
14095;DHT22;18096;48.142;16.290;2022-10-30T02:06:52;11.90;99.90
14095;DHT22;18096;48.142;16.290;2022-10-30T02:09:18;11.90;99.90
14095;DHT22;18096;48.142;16.290;2022-10-30T02:11:45;11.90;99.90
14095;DHT22;18096;48.142;16.290;2022-10-30T02:14:12;11.80;99.90
14095;DHT22;18096;48.142;16.290;2022-10-30T02:16:44;11.80;99.90
14095;DHT22;18096;48.142;16.290;2022-10-30T02:19:10;11.80;99.90
14095;DHT22;18096;48.142;16.290;2022-10-30T02:21:36;11.80;99.90
14095;DHT22;18096;48.142;16.290;2022-10-30T02:24:01;11.80;99.90
14095;DHT22;18096;48.142;16.290;2022-10-30T02:26:27;11.80;99.90
14095;DHT22;18096;48.142;16.290;2022-10-30T02:28:52;11.80;99.90
14095;DHT22;18096;48.142;16.290;2022-10-30T02:31:18;11.80;99.90
14095;DHT22;18096;48.142;16.290;2022-10-30T02:33:47;11.80;99.90
14095;DHT22;18096;48.142;16.290;2022-10-30T02:36:13;11.70;99.90
14095;DHT22;18096;48.142;16.290;2022-10-30T02:38:42;11.70;99.90
14095;DHT22;18096;48.142;16.290;2022-10-30T02:41:09;11.80;99.90
14095;DHT22;18096;48.142;16.290;2022-10-30T02:43:35;11.80;99.90
14095;DHT22;18096;48.142;16.290;2022-10-30T02:46:01;11.70;99.90
14095;DHT22;18096;48.142;16.290;2022-10-30T02:48:26;11.70;99.90
14095;DHT22;18096;48.142;16.290;2022-10-30T02:50:52;11.70;99.90
14095;DHT22;18096;48.142;16.290;2022-10-30T02:53:17;11.70;99.90
14095;DHT22;18096;48.142;16.290;2022-10-30T02:55:43;11.70;99.90
14095;DHT22;18096;48.142;16.290;2022-10-30T02:58:11;11.70;99.90
14095;DHT22;18096;48.142;16.290;2022-10-30T03:00:37;11.80;99.90
14095;DHT22;18096;48.142;16.290;2022-10-30T03:03:03;11.70;99.90
14095;DHT22;18096;48.142;16.290;2022-10-30T03:05:29;11.70;99.90
14095;DHT22;18096;48.142;16.290;2022-10-30T03:07:54;11.70;99.90
14095;DHT22;18096;48.142;16.290;2022-10-30T03:10:20;11.70;99.90
14095;DHT22;18096;48.142;16.290;2022-10-30T03:12:45;11.70;99.90
14095;DHT22;18096;48.142;16.290;2022-10-30T03:15:12;11.60;99.90
14095;DHT22;18096;48.142;16.290;2022-10-30T03:17:40;11.70;99.90
14095;DHT22;18096;48.142;16.290;2022-10-30T03:20:06;11.60;99.90
14095;DHT22;18096;48.142;16.290;2022-10-30T03:22:31;11.60;99.90
14095;DHT22;18096;48.142;16.290;2022-10-30T03:24:57;11.60;99.90
14095;DHT22;18096;48.142;16.290;2022-10-30T03:27:23;11.50;99.90
14095;DHT22;18096;48.142;16.290;2022-10-30T03:29:48;11.50;99.90
14095;DHT22;18096;48.142;16.290;2022-10-30T03:32:14;11.50;99.90
14095;DHT22;18096;48.142;16.290;2022-10-30T03:34:41;11.50;99.90
14095;DHT22;18096;48.142;16.290;2022-10-30T03:37:06;11.50;99.90
14095;DHT22;18096;48.142;16.290;2022-10-30T03:39:32;11.50;99.90
14095;DHT22;18096;48.142;16.290;2022-10-30T03:41:58;11.50;99.90
14095;DHT22;18096;48.142;16.290;2022-10-30T03:44:23;11.50;99.90
14095;DHT22;18096;48.142;16.290;2022-10-30T03:46:49;11.50;99.90
14095;DHT22;18096;48.142;16.290;2022-10-30T03:49:15;11.50;99.90
14095;DHT22;18096;48.142;16.290;2022-10-30T03:51:40;11.40;99.90
14095;DHT22;18096;48.142;16.290;2022-10-30T03:54:06;11.40;99.90
14095;DHT22;18096;48.142;16.290;2022-10-30T03:56:31;11.30;99.90
14095;DHT22;18096;48.142;16.290;2022-10-30T03:58:57;11.30;99.90
14095;DHT22;18096;48.142;16.290;2022-10-30T04:01:23;11.30;99.90
14095;DHT22;18096;48.142;16.290;2022-10-30T04:03:48;11.30;99.90
14095;DHT22;18096;48.142;16.290;2022-10-30T04:06:14;11.20;99.90
14095;DHT22;18096;48.142;16.290;2022-10-30T04:08:40;11.20;99.90
14095;DHT22;18096;48.142;16.290;2022-10-30T04:11:05;11.20;99.90
14095;DHT22;18096;48.142;16.290;2022-10-30T04:13:33;11.20;99.90
14095;DHT22;18096;48.142;16.290;2022-10-30T04:15:59;11.10;99.90
14095;DHT22;18096;48.142;16.290;2022-10-30T04:18:25;11.10;99.90
14095;DHT22;18096;48.142;16.290;2022-10-30T04:20:51;11.10;99.90
14095;DHT22;18096;48.142;16.290;2022-10-30T04:23:18;11.10;99.90
14095;DHT22;18096;48.142;16.290;2022-10-30T04:25:44;11.10;99.90
14095;DHT22;18096;48.142;16.290;2022-10-30T04:28:10;11.10;99.90
14095;DHT22;18096;48.142;16.290;2022-10-30T04:30:37;11.10;99.90
14095;DHT22;18096;48.142;16.290;2022-10-30T04:33:06;11.00;99.90
14095;DHT22;18096;48.142;16.290;2022-10-30T04:35:34;11.10;99.90
14095;DHT22;18096;48.142;16.290;2022-10-30T04:38:09;11.10;99.90
14095;DHT22;18096;48.142;16.290;2022-10-30T04:40:37;11.10;99.90
14095;DHT22;18096;48.142;16.290;2022-10-30T04:43:04;11.10;99.90
14095;DHT22;18096;48.142;16.290;2022-10-30T04:45:30;11.10;99.90
14095;DHT22;18096;48.142;16.290;2022-10-30T04:48:03;11.10;99.90
14095;DHT22;18096;48.142;16.290;2022-10-30T04:50:30;11.10;99.90
14095;DHT22;18096;48.142;16.290;2022-10-30T04:53:02;11.10;99.90
14095;DHT22;18096;48.142;16.290;2022-10-30T04:55:29;11.10;99.90
14095;DHT22;18096;48.142;16.290;2022-10-30T04:57:56;11.10;99.90
14095;DHT22;18096;48.142;16.290;2022-10-30T05:00:23;11.10;99.90
14095;DHT22;18096;48.142;16.290;2022-10-30T05:02:50;11.10;99.90
14095;DHT22;18096;48.142;16.290;2022-10-30T05:05:16;11.00;99.90
14095;DHT22;18096;48.142;16.290;2022-10-30T05:07:42;11.00;99.90
14095;DHT22;18096;48.142;16.290;2022-10-30T05:10:11;11.00;99.90
14095;DHT22;18096;48.142;16.290;2022-10-30T05:12:42;11.00;99.90
14095;DHT22;18096;48.142;16.290;2022-10-30T05:15:09;11.00;99.90
14095;DHT22;18096;48.142;16.290;2022-10-30T05:17:35;11.00;99.90
14095;DHT22;18096;48.142;16.290;2022-10-30T05:20:01;11.00;99.90
14095;DHT22;18096;48.142;16.290;2022-10-30T05:22:27;10.90;99.90
14095;DHT22;18096;48.142;16.290;2022-10-30T05:24:52;10.90;99.90
14095;DHT22;18096;48.142;16.290;2022-10-30T05:27:18;10.90;99.90
14095;DHT22;18096;48.142;16.290;2022-10-30T05:29:44;10.90;99.90
14095;DHT22;18096;48.142;16.290;2022-10-30T05:32:09;10.90;99.90
14095;DHT22;18096;48.142;16.290;2022-10-30T05:34:35;10.90;99.90
14095;DHT22;18096;48.142;16.290;2022-10-30T05:37:00;10.90;99.90
14095;DHT22;18096;48.142;16.290;2022-10-30T05:39:26;10.90;99.90
14095;DHT22;18096;48.142;16.290;2022-10-30T05:41:52;10.90;99.90
14095;DHT22;18096;48.142;16.290;2022-10-30T05:44:18;10.90;99.90
14095;DHT22;18096;48.142;16.290;2022-10-30T05:46:44;10.90;99.90
14095;DHT22;18096;48.142;16.290;2022-10-30T05:49:10;10.90;99.90
14095;DHT22;18096;48.142;16.290;2022-10-30T05:51:35;10.90;99.90
14095;DHT22;18096;48.142;16.290;2022-10-30T05:54:01;10.90;99.90
14095;DHT22;18096;48.142;16.290;2022-10-30T05:56:27;10.90;99.90
14095;DHT22;18096;48.142;16.290;2022-10-30T05:58:52;10.90;99.90
14095;DHT22;18096;48.142;16.290;2022-10-30T06:01:18;10.90;99.90
14095;DHT22;18096;48.142;16.290;2022-10-30T06:03:43;10.90;99.90
14095;DHT22;18096;48.142;16.290;2022-10-30T06:06:09;10.80;99.90
14095;DHT22;18096;48.142;16.290;2022-10-30T06:08:35;10.80;99.90
14095;DHT22;18096;48.142;16.290;2022-10-30T06:11:00;10.80;99.90
14095;DHT22;18096;48.142;16.290;2022-10-30T06:13:26;10.80;99.90
14095;DHT22;18096;48.142;16.290;2022-10-30T06:15:55;10.80;99.90
14095;DHT22;18096;48.142;16.290;2022-10-30T06:18:21;10.70;99.90
14095;DHT22;18096;48.142;16.290;2022-10-30T06:20:47;10.70;99.90
14095;DHT22;18096;48.142;16.290;2022-10-30T06:23:13;10.80;99.90
14095;DHT22;18096;48.142;16.290;2022-10-30T06:25:39;10.80;99.90
14095;DHT22;18096;48.142;16.290;2022-10-30T06:28:05;10.80;99.90
14095;DHT22;18096;48.142;16.290;2022-10-30T06:30:31;10.80;99.90
14095;DHT22;18096;48.142;16.290;2022-10-30T06:32:58;10.80;99.90
14095;DHT22;18096;48.142;16.290;2022-10-30T06:35:24;10.80;99.90
14095;DHT22;18096;48.142;16.290;2022-10-30T06:37:49;10.80;99.90
14095;DHT22;18096;48.142;16.290;2022-10-30T06:40:16;10.80;99.90
14095;DHT22;18096;48.142;16.290;2022-10-30T06:42:46;10.80;99.90
14095;DHT22;18096;48.142;16.290;2022-10-30T06:45:12;10.80;99.90
14095;DHT22;18096;48.142;16.290;2022-10-30T06:47:39;10.80;99.90
14095;DHT22;18096;48.142;16.290;2022-10-30T06:50:07;10.80;99.90
14095;DHT22;18096;48.142;16.290;2022-10-30T06:52:33;10.80;99.90
14095;DHT22;18096;48.142;16.290;2022-10-30T06:54:59;10.90;99.90
14095;DHT22;18096;48.142;16.290;2022-10-30T06:57:24;10.90;99.90
14095;DHT22;18096;48.142;16.290;2022-10-30T06:59:50;10.90;99.90
14095;DHT22;18096;48.142;16.290;2022-10-30T07:02:16;10.90;99.90
14095;DHT22;18096;48.142;16.290;2022-10-30T07:04:41;11.00;99.90
14095;DHT22;18096;48.142;16.290;2022-10-30T07:07:07;11.00;99.90
14095;DHT22;18096;48.142;16.290;2022-10-30T07:09:33;11.00;99.90
14095;DHT22;18096;48.142;16.290;2022-10-30T07:11:59;11.00;99.90
14095;DHT22;18096;48.142;16.290;2022-10-30T07:14:24;11.10;99.90
14095;DHT22;18096;48.142;16.290;2022-10-30T07:16:50;11.10;99.90
14095;DHT22;18096;48.142;16.290;2022-10-30T07:19:15;11.10;99.90
14095;DHT22;18096;48.142;16.290;2022-10-30T07:21:41;11.10;99.90
14095;DHT22;18096;48.142;16.290;2022-10-30T07:24:07;11.20;99.90
14095;DHT22;18096;48.142;16.290;2022-10-30T07:26:32;11.20;99.90
14095;DHT22;18096;48.142;16.290;2022-10-30T07:29:05;11.20;99.90
14095;DHT22;18096;48.142;16.290;2022-10-30T07:31:31;11.20;99.90
14095;DHT22;18096;48.142;16.290;2022-10-30T07:33:57;11.20;99.90
14095;DHT22;18096;48.142;16.290;2022-10-30T07:36:23;11.20;99.90
14095;DHT22;18096;48.142;16.290;2022-10-30T07:38:50;11.20;99.90
14095;DHT22;18096;48.142;16.290;2022-10-30T07:41:17;11.20;99.90
14095;DHT22;18096;48.142;16.290;2022-10-30T07:43:43;11.30;99.90
14095;DHT22;18096;48.142;16.290;2022-10-30T07:46:08;11.30;99.90
14095;DHT22;18096;48.142;16.290;2022-10-30T07:48:34;11.30;99.90
14095;DHT22;18096;48.142;16.290;2022-10-30T07:51:00;11.30;99.90
14095;DHT22;18096;48.142;16.290;2022-10-30T07:53:25;11.30;99.90
14095;DHT22;18096;48.142;16.290;2022-10-30T07:55:51;11.30;99.90
14095;DHT22;18096;48.142;16.290;2022-10-30T07:58:17;11.30;99.90
14095;DHT22;18096;48.142;16.290;2022-10-30T08:00:42;11.20;99.90
14095;DHT22;18096;48.142;16.290;2022-10-30T08:03:09;11.20;99.90
14095;DHT22;18096;48.142;16.290;2022-10-30T08:05:35;11.20;99.90
14095;DHT22;18096;48.142;16.290;2022-10-30T08:08:01;11.20;99.90
14095;DHT22;18096;48.142;16.290;2022-10-30T08:10:27;11.20;99.90
14095;DHT22;18096;48.142;16.290;2022-10-30T08:12:53;11.20;99.90
14095;DHT22;18096;48.142;16.290;2022-10-30T08:15:19;11.30;99.90
14095;DHT22;18096;48.142;16.290;2022-10-30T08:17:47;11.30;99.90
14095;DHT22;18096;48.142;16.290;2022-10-30T08:20:14;11.30;99.90
14095;DHT22;18096;48.142;16.290;2022-10-30T08:22:50;11.30;99.90
14095;DHT22;18096;48.142;16.290;2022-10-30T08:25:19;11.30;99.90
14095;DHT22;18096;48.142;16.290;2022-10-30T08:27:50;11.30;99.90
14095;DHT22;18096;48.142;16.290;2022-10-30T08:30:16;11.40;99.90
14095;DHT22;18096;48.142;16.290;2022-10-30T08:32:41;11.40;99.90
14095;DHT22;18096;48.142;16.290;2022-10-30T08:35:07;11.40;99.90
14095;DHT22;18096;48.142;16.290;2022-10-30T08:37:33;11.40;99.90
14095;DHT22;18096;48.142;16.290;2022-10-30T08:39:59;11.40;99.90
14095;DHT22;18096;48.142;16.290;2022-10-30T08:42:24;11.40;99.90
14095;DHT22;18096;48.142;16.290;2022-10-30T08:44:50;11.40;99.90
14095;DHT22;18096;48.142;16.290;2022-10-30T08:47:16;11.40;99.90
14095;DHT22;18096;48.142;16.290;2022-10-30T08:49:42;11.40;99.90
14095;DHT22;18096;48.142;16.290;2022-10-30T08:52:08;11.40;99.90
14095;DHT22;18096;48.142;16.290;2022-10-30T08:54:34;11.40;99.90
14095;DHT22;18096;48.142;16.290;2022-10-30T08:57:00;11.50;99.90
14095;DHT22;18096;48.142;16.290;2022-10-30T08:59:26;11.50;99.90
14095;DHT22;18096;48.142;16.290;2022-10-30T09:01:51;11.50;99.90
14095;DHT22;18096;48.142;16.290;2022-10-30T09:04:17;11.60;99.90
14095;DHT22;18096;48.142;16.290;2022-10-30T09:06:43;11.60;99.90
14095;DHT22;18096;48.142;16.290;2022-10-30T09:09:08;11.70;99.90
14095;DHT22;18096;48.142;16.290;2022-10-30T09:11:34;11.70;99.90
14095;DHT22;18096;48.142;16.290;2022-10-30T09:14:00;11.70;99.90
14095;DHT22;18096;48.142;16.290;2022-10-30T09:16:25;11.70;99.90
14095;DHT22;18096;48.142;16.290;2022-10-30T09:18:51;11.70;99.90
14095;DHT22;18096;48.142;16.290;2022-10-30T09:21:16;11.70;99.90
14095;DHT22;18096;48.142;16.290;2022-10-30T09:23:43;11.70;99.90
14095;DHT22;18096;48.142;16.290;2022-10-30T09:26:09;11.70;99.90
14095;DHT22;18096;48.142;16.290;2022-10-30T09:28:35;11.70;99.90
14095;DHT22;18096;48.142;16.290;2022-10-30T09:31:01;11.70;99.90
14095;DHT22;18096;48.142;16.290;2022-10-30T09:33:26;11.80;99.90
14095;DHT22;18096;48.142;16.290;2022-10-30T09:35:52;11.70;99.90
14095;DHT22;18096;48.142;16.290;2022-10-30T09:38:18;11.70;99.90
14095;DHT22;18096;48.142;16.290;2022-10-30T09:41:00;11.80;99.90
14095;DHT22;18096;48.142;16.290;2022-10-30T10:00:20;11.90;99.90
14095;DHT22;18096;48.142;16.290;2022-10-30T10:05:43;12.00;99.90
14095;DHT22;18096;48.142;16.290;2022-10-30T10:08:35;12.00;99.90
14095;DHT22;18096;48.142;16.290;2022-10-30T10:11:09;12.10;99.90
14095;DHT22;18096;48.142;16.290;2022-10-30T10:13:38;12.10;99.90
14095;DHT22;18096;48.142;16.290;2022-10-30T10:16:20;12.10;99.90
14095;DHT22;18096;48.142;16.290;2022-10-30T10:18:56;12.10;99.90
14095;DHT22;18096;48.142;16.290;2022-10-30T10:21:25;12.20;99.90
14095;DHT22;18096;48.142;16.290;2022-10-30T10:23:56;12.20;99.90
14095;DHT22;18096;48.142;16.290;2022-10-30T10:32:26;12.30;99.90
14095;DHT22;18096;48.142;16.290;2022-10-30T10:51:41;12.50;99.90
14095;DHT22;18096;48.142;16.290;2022-10-30T10:54:22;12.50;99.90
14095;DHT22;18096;48.142;16.290;2022-10-30T10:56:51;12.50;99.90
14095;DHT22;18096;48.142;16.290;2022-10-30T10:59:24;12.60;99.90
14095;DHT22;18096;48.142;16.290;2022-10-30T11:07:51;12.60;99.90
14095;DHT22;18096;48.142;16.290;2022-10-30T11:10:19;12.60;99.90
14095;DHT22;18096;48.142;16.290;2022-10-30T11:12:45;12.60;99.90
14095;DHT22;18096;48.142;16.290;2022-10-30T11:15:43;12.60;99.90
14095;DHT22;18096;48.142;16.290;2022-10-30T11:18:10;12.60;99.90
14095;DHT22;18096;48.142;16.290;2022-10-30T11:23:39;12.60;99.90
14095;DHT22;18096;48.142;16.290;2022-10-30T11:31:38;12.70;99.90
14095;DHT22;18096;48.142;16.290;2022-10-30T11:34:37;12.60;99.90
14095;DHT22;18096;48.142;16.290;2022-10-30T11:37:04;12.60;99.90
14095;DHT22;18096;48.142;16.290;2022-10-30T11:39:31;12.60;99.90
14095;DHT22;18096;48.142;16.290;2022-10-30T11:42:13;12.70;99.90
14095;DHT22;18096;48.142;16.290;2022-10-30T11:47:08;12.70;99.90
14095;DHT22;18096;48.142;16.290;2022-10-30T11:52:09;12.60;99.90
14095;DHT22;18096;48.142;16.290;2022-10-30T11:54:40;12.60;99.90
14095;DHT22;18096;48.142;16.290;2022-10-30T11:59:48;12.60;99.90
14095;DHT22;18096;48.142;16.290;2022-10-30T12:02:26;12.60;99.90
14095;DHT22;18096;48.142;16.290;2022-10-30T12:04:53;12.70;99.90
14095;DHT22;18096;48.142;16.290;2022-10-30T12:09:48;12.70;99.90
14095;DHT22;18096;48.142;16.290;2022-10-30T12:12:27;12.70;99.90
14095;DHT22;18096;48.142;16.290;2022-10-30T12:14:54;12.60;99.90
14095;DHT22;18096;48.142;16.290;2022-10-30T12:17:21;12.70;99.90
14095;DHT22;18096;48.142;16.290;2022-10-30T12:19:52;12.70;99.90
14095;DHT22;18096;48.142;16.290;2022-10-30T12:22:26;12.70;99.90
14095;DHT22;18096;48.142;16.290;2022-10-30T12:24:52;12.60;99.90
14095;DHT22;18096;48.142;16.290;2022-10-30T12:27:18;12.60;99.90
14095;DHT22;18096;48.142;16.290;2022-10-30T12:32:20;12.60;99.90
14095;DHT22;18096;48.142;16.290;2022-10-30T12:34:56;12.50;99.90
14095;DHT22;18096;48.142;16.290;2022-10-30T12:37:32;12.50;99.90
14095;DHT22;18096;48.142;16.290;2022-10-30T12:40:11;12.50;99.90
14095;DHT22;18096;48.142;16.290;2022-10-30T12:42:44;12.50;99.90
14095;DHT22;18096;48.142;16.290;2022-10-30T12:45:15;12.50;99.90
14095;DHT22;18096;48.142;16.290;2022-10-30T12:50:54;12.50;99.90
14095;DHT22;18096;48.142;16.290;2022-10-30T12:53:28;12.40;99.90
14095;DHT22;18096;48.142;16.290;2022-10-30T12:56:00;12.40;99.90
14095;DHT22;18096;48.142;16.290;2022-10-30T12:58:42;12.40;99.90
14095;DHT22;18096;48.142;16.290;2022-10-30T13:01:31;12.40;99.90
14095;DHT22;18096;48.142;16.290;2022-10-30T13:04:09;12.40;99.90
14095;DHT22;18096;48.142;16.290;2022-10-30T13:06:47;12.30;99.90
14095;DHT22;18096;48.142;16.290;2022-10-30T13:09:26;12.40;99.90
14095;DHT22;18096;48.142;16.290;2022-10-30T13:12:05;12.40;99.90
14095;DHT22;18096;48.142;16.290;2022-10-30T13:14:34;12.40;99.90
14095;DHT22;18096;48.142;16.290;2022-10-30T13:17:03;12.30;99.90
14095;DHT22;18096;48.142;16.290;2022-10-30T13:19:34;12.30;99.90
14095;DHT22;18096;48.142;16.290;2022-10-30T13:22:06;12.30;99.90
14095;DHT22;18096;48.142;16.290;2022-10-30T13:30:03;12.20;99.90
14095;DHT22;18096;48.142;16.290;2022-10-30T13:35:22;12.20;99.90
14095;DHT22;18096;48.142;16.290;2022-10-30T13:41:13;12.20;99.90
14095;DHT22;18096;48.142;16.290;2022-10-30T13:43:53;12.20;99.90
14095;DHT22;18096;48.142;16.290;2022-10-30T13:49:29;12.20;99.90
14095;DHT22;18096;48.142;16.290;2022-10-30T13:52:13;12.20;99.90
14095;DHT22;18096;48.142;16.290;2022-10-30T13:57:22;12.20;99.90
14095;DHT22;18096;48.142;16.290;2022-10-30T14:00:04;12.20;99.90
14095;DHT22;18096;48.142;16.290;2022-10-30T14:08:04;12.30;99.90
14095;DHT22;18096;48.142;16.290;2022-10-30T14:10:47;12.30;99.90
14095;DHT22;18096;48.142;16.290;2022-10-30T14:13:30;12.30;99.90
14095;DHT22;18096;48.142;16.290;2022-10-30T14:16:32;12.30;99.90
14095;DHT22;18096;48.142;16.290;2022-10-30T14:19:03;12.40;99.90
14095;DHT22;18096;48.142;16.290;2022-10-30T14:24:12;12.40;99.90
14095;DHT22;18096;48.142;16.290;2022-10-30T14:26:45;12.30;99.90
14095;DHT22;18096;48.142;16.290;2022-10-30T14:39:56;12.40;99.90
14095;DHT22;18096;48.142;16.290;2022-10-30T14:42:35;12.40;99.90
14095;DHT22;18096;48.142;16.290;2022-10-30T14:48:05;12.40;99.90
14095;DHT22;18096;48.142;16.290;2022-10-30T14:51:02;12.40;99.90
14095;DHT22;18096;48.142;16.290;2022-10-30T14:58:40;12.30;99.90
14095;DHT22;18096;48.142;16.290;2022-10-30T15:01:23;12.30;99.90
14095;DHT22;18096;48.142;16.290;2022-10-30T15:04:05;12.30;99.90
14095;DHT22;18096;48.142;16.290;2022-10-30T15:15:36;12.30;99.90
14095;DHT22;18096;48.142;16.290;2022-10-30T15:18:07;12.30;99.90
14095;DHT22;18096;48.142;16.290;2022-10-30T15:20:34;12.30;99.90
14095;DHT22;18096;48.142;16.290;2022-10-30T15:23:15;12.20;99.90
14095;DHT22;18096;48.142;16.290;2022-10-30T15:25:49;12.20;99.90
14095;DHT22;18096;48.142;16.290;2022-10-30T15:28:18;12.20;99.90
14095;DHT22;18096;48.142;16.290;2022-10-30T15:31:01;12.20;99.90
14095;DHT22;18096;48.142;16.290;2022-10-30T15:33:31;12.10;99.90
14095;DHT22;18096;48.142;16.290;2022-10-30T15:36:02;12.10;99.90
14095;DHT22;18096;48.142;16.290;2022-10-30T15:38:28;12.10;99.90
14095;DHT22;18096;48.142;16.290;2022-10-30T15:40:57;12.20;99.90
14095;DHT22;18096;48.142;16.290;2022-10-30T15:43:32;12.10;99.90
14095;DHT22;18096;48.142;16.290;2022-10-30T15:45:59;12.20;99.90
14095;DHT22;18096;48.142;16.290;2022-10-30T15:48:33;12.20;99.90
14095;DHT22;18096;48.142;16.290;2022-10-30T15:51:01;12.20;99.90
14095;DHT22;18096;48.142;16.290;2022-10-30T15:53:44;12.20;99.90
14095;DHT22;18096;48.142;16.290;2022-10-30T15:56:24;12.20;99.90
14095;DHT22;18096;48.142;16.290;2022-10-30T15:58:54;12.10;99.90
14095;DHT22;18096;48.142;16.290;2022-10-30T16:04:48;12.10;99.90
14095;DHT22;18096;48.142;16.290;2022-10-30T16:07:22;12.10;99.90
14095;DHT22;18096;48.142;16.290;2022-10-30T16:09:56;12.10;99.90
14095;DHT22;18096;48.142;16.290;2022-10-30T16:12:26;12.10;99.90
14095;DHT22;18096;48.142;16.290;2022-10-30T16:14:54;12.10;99.90
14095;DHT22;18096;48.142;16.290;2022-10-30T16:17:20;12.10;99.90
14095;DHT22;18096;48.142;16.290;2022-10-30T16:19:52;12.10;99.90
14095;DHT22;18096;48.142;16.290;2022-10-30T16:22:30;12.10;99.90
14095;DHT22;18096;48.142;16.290;2022-10-30T16:24:59;12.10;99.90
14095;DHT22;18096;48.142;16.290;2022-10-30T16:27:25;12.10;99.90
14095;DHT22;18096;48.142;16.290;2022-10-30T16:29:57;12.10;99.90
14095;DHT22;18096;48.142;16.290;2022-10-30T16:32:28;12.10;99.90
14095;DHT22;18096;48.142;16.290;2022-10-30T16:34:59;12.10;99.90
14095;DHT22;18096;48.142;16.290;2022-10-30T16:37:33;12.10;99.90
14095;DHT22;18096;48.142;16.290;2022-10-30T16:40:12;12.10;99.90
14095;DHT22;18096;48.142;16.290;2022-10-30T16:42:38;12.10;99.90
14095;DHT22;18096;48.142;16.290;2022-10-30T16:47:59;12.10;99.90
14095;DHT22;18096;48.142;16.290;2022-10-30T16:50:33;12.10;99.90
14095;DHT22;18096;48.142;16.290;2022-10-30T16:53:25;12.10;99.90
14095;DHT22;18096;48.142;16.290;2022-10-30T16:55:54;12.10;99.90
14095;DHT22;18096;48.142;16.290;2022-10-30T16:58:24;12.10;99.90
14095;DHT22;18096;48.142;16.290;2022-10-30T17:00:55;12.10;99.90
14095;DHT22;18096;48.142;16.290;2022-10-30T17:03:27;12.10;99.90
14095;DHT22;18096;48.142;16.290;2022-10-30T17:06:03;12.10;99.90
14095;DHT22;18096;48.142;16.290;2022-10-30T17:08:44;12.10;99.90
14095;DHT22;18096;48.142;16.290;2022-10-30T17:11:18;12.20;99.90
14095;DHT22;18096;48.142;16.290;2022-10-30T17:18:53;12.20;99.90
14095;DHT22;18096;48.142;16.290;2022-10-30T17:21:43;12.20;99.90
14095;DHT22;18096;48.142;16.290;2022-10-30T17:24:30;12.20;99.90
14095;DHT22;18096;48.142;16.290;2022-10-30T17:27:05;12.20;99.90
14095;DHT22;18096;48.142;16.290;2022-10-30T17:32:05;12.20;99.90
14095;DHT22;18096;48.142;16.290;2022-10-30T17:34:37;12.20;99.90
14095;DHT22;18096;48.142;16.290;2022-10-30T17:37:03;12.20;99.90
14095;DHT22;18096;48.142;16.290;2022-10-30T17:39:32;12.20;99.90
14095;DHT22;18096;48.142;16.290;2022-10-30T17:41:58;12.20;99.90
14095;DHT22;18096;48.142;16.290;2022-10-30T17:44:24;12.20;99.90
14095;DHT22;18096;48.142;16.290;2022-10-30T17:46:50;12.20;99.90
14095;DHT22;18096;48.142;16.290;2022-10-30T17:49:24;12.20;99.90
14095;DHT22;18096;48.142;16.290;2022-10-30T17:51:51;12.20;99.90
14095;DHT22;18096;48.142;16.290;2022-10-30T17:54:17;12.20;99.90
14095;DHT22;18096;48.142;16.290;2022-10-30T17:56:43;12.20;99.90
14095;DHT22;18096;48.142;16.290;2022-10-30T17:59:09;12.20;99.90
14095;DHT22;18096;48.142;16.290;2022-10-30T18:01:35;12.20;99.90
14095;DHT22;18096;48.142;16.290;2022-10-30T18:04:01;12.30;99.90
14095;DHT22;18096;48.142;16.290;2022-10-30T18:06:28;12.20;99.90
14095;DHT22;18096;48.142;16.290;2022-10-30T18:08:54;12.30;99.90
14095;DHT22;18096;48.142;16.290;2022-10-30T18:11:23;12.20;99.90
14095;DHT22;18096;48.142;16.290;2022-10-30T18:13:50;12.30;99.90